sensor_id;sensor_type;location;lat;lon;timestamp;P1;durP1;ratioP1;P2;durP2;ratioP2
50709;SDS011;37033;49.994;21.992;2022-08-01T00:01:43;4.10;;;1.20;;
50709;SDS011;37033;49.994;21.992;2022-08-01T00:04:33;2.20;;;0.90;;
50709;SDS011;37033;49.994;21.992;2022-08-01T00:07:23;3.90;;;0.80;;
50709;SDS011;37033;49.994;21.992;2022-08-01T00:10:15;1.50;;;0.80;;
50709;SDS011;37033;49.994;21.992;2022-08-01T00:13:06;2.00;;;0.80;;
50709;SDS011;37033;49.994;21.992;2022-08-01T00:15:57;0.90;;;0.80;;
50709;SDS011;37033;49.994;21.992;2022-08-01T00:18:47;1.90;;;0.80;;
50709;SDS011;37033;49.994;21.992;2022-08-01T00:21:38;1.90;;;0.90;;
50709;SDS011;37033;49.994;21.992;2022-08-01T00:24:28;1.20;;;0.70;;
50709;SDS011;37033;49.994;21.992;2022-08-01T00:27:19;3.10;;;0.90;;
50709;SDS011;37033;49.994;21.992;2022-08-01T00:30:10;1.20;;;0.80;;
50709;SDS011;37033;49.994;21.992;2022-08-01T00:33:00;0.90;;;0.80;;
50709;SDS011;37033;49.994;21.992;2022-08-01T00:35:50;0.50;;;0.50;;
50709;SDS011;37033;49.994;21.992;2022-08-01T00:38:40;1.70;;;0.70;;
50709;SDS011;37033;49.994;21.992;2022-08-01T00:41:31;2.40;;;0.70;;
50709;SDS011;37033;49.994;21.992;2022-08-01T00:44:21;1.20;;;0.90;;
50709;SDS011;37033;49.994;21.992;2022-08-01T00:47:11;1.30;;;0.60;;
50709;SDS011;37033;49.994;21.992;2022-08-01T00:50:02;1.40;;;0.70;;
50709;SDS011;37033;49.994;21.992;2022-08-01T00:52:54;0.60;;;0.60;;
50709;SDS011;37033;49.994;21.992;2022-08-01T00:55:46;1.20;;;0.80;;
50709;SDS011;37033;49.994;21.992;2022-08-01T00:58:36;0.70;;;0.70;;
50709;SDS011;37033;49.994;21.992;2022-08-01T01:01:27;1.10;;;0.60;;
50709;SDS011;37033;49.994;21.992;2022-08-01T01:04:17;0.90;;;0.60;;
50709;SDS011;37033;49.994;21.992;2022-08-01T01:07:08;2.70;;;0.90;;
50709;SDS011;37033;49.994;21.992;2022-08-01T01:10:07;0.80;;;0.60;;
50709;SDS011;37033;49.994;21.992;2022-08-01T01:13:04;3.00;;;0.60;;
50709;SDS011;37033;49.994;21.992;2022-08-01T01:18:49;1.30;;;0.60;;
50709;SDS011;37033;49.994;21.992;2022-08-01T01:21:50;1.30;;;0.60;;
50709;SDS011;37033;49.994;21.992;2022-08-01T01:25:02;0.60;;;0.60;;
50709;SDS011;37033;49.994;21.992;2022-08-01T01:28:02;1.20;;;0.50;;
50709;SDS011;37033;49.994;21.992;2022-08-01T01:30:58;2.20;;;0.40;;
50709;SDS011;37033;49.994;21.992;2022-08-01T01:33:50;0.60;;;0.30;;
50709;SDS011;37033;49.994;21.992;2022-08-01T01:36:42;0.90;;;0.50;;
50709;SDS011;37033;49.994;21.992;2022-08-01T01:39:35;1.40;;;0.30;;
50709;SDS011;37033;49.994;21.992;2022-08-01T01:42:27;0.90;;;0.50;;
50709;SDS011;37033;49.994;21.992;2022-08-01T01:45:20;0.40;;;0.40;;
50709;SDS011;37033;49.994;21.992;2022-08-01T01:48:12;0.50;;;0.40;;
50709;SDS011;37033;49.994;21.992;2022-08-01T01:51:05;0.60;;;0.60;;
50709;SDS011;37033;49.994;21.992;2022-08-01T01:53:56;0.30;;;0.30;;
50709;SDS011;37033;49.994;21.992;2022-08-01T01:56:47;1.00;;;0.40;;
50709;SDS011;37033;49.994;21.992;2022-08-01T01:59:41;2.60;;;0.40;;
50709;SDS011;37033;49.994;21.992;2022-08-01T02:02:32;0.40;;;0.40;;
50709;SDS011;37033;49.994;21.992;2022-08-01T02:05:24;0.70;;;0.40;;
50709;SDS011;37033;49.994;21.992;2022-08-01T02:08:17;0.40;;;0.40;;
50709;SDS011;37033;49.994;21.992;2022-08-01T02:11:08;2.50;;;0.30;;
50709;SDS011;37033;49.994;21.992;2022-08-01T02:14:08;1.50;;;0.30;;
50709;SDS011;37033;49.994;21.992;2022-08-01T02:17:00;2.60;;;0.30;;
50709;SDS011;37033;49.994;21.992;2022-08-01T02:19:52;0.90;;;0.30;;
50709;SDS011;37033;49.994;21.992;2022-08-01T02:22:44;0.30;;;0.30;;
50709;SDS011;37033;49.994;21.992;2022-08-01T02:25:38;0.20;;;0.20;;
50709;SDS011;37033;49.994;21.992;2022-08-01T02:28:35;0.50;;;0.50;;
50709;SDS011;37033;49.994;21.992;2022-08-01T02:31:29;0.20;;;0.20;;
50709;SDS011;37033;49.994;21.992;2022-08-01T02:34:26;0.70;;;0.30;;
50709;SDS011;37033;49.994;21.992;2022-08-01T02:37:19;0.70;;;0.40;;
50709;SDS011;37033;49.994;21.992;2022-08-01T02:40:11;0.60;;;0.60;;
50709;SDS011;37033;49.994;21.992;2022-08-01T02:43:03;2.10;;;0.80;;
50709;SDS011;37033;49.994;21.992;2022-08-01T02:45:57;1.10;;;0.70;;
50709;SDS011;37033;49.994;21.992;2022-08-01T02:48:51;1.30;;;1.00;;
50709;SDS011;37033;49.994;21.992;2022-08-01T02:51:43;1.60;;;1.20;;
50709;SDS011;37033;49.994;21.992;2022-08-01T02:54:36;1.90;;;1.40;;
50709;SDS011;37033;49.994;21.992;2022-08-01T02:57:28;2.70;;;1.90;;
50709;SDS011;37033;49.994;21.992;2022-08-01T03:00:21;2.20;;;1.90;;
50709;SDS011;37033;49.994;21.992;2022-08-01T03:03:13;1.80;;;1.50;;
50709;SDS011;37033;49.994;21.992;2022-08-01T03:06:04;3.90;;;1.90;;
50709;SDS011;37033;49.994;21.992;2022-08-01T03:08:58;2.10;;;1.90;;
50709;SDS011;37033;49.994;21.992;2022-08-01T03:11:51;1.50;;;1.40;;
50709;SDS011;37033;49.994;21.992;2022-08-01T03:14:45;4.90;;;2.20;;
50709;SDS011;37033;49.994;21.992;2022-08-01T03:17:38;1.90;;;1.80;;
50709;SDS011;37033;49.994;21.992;2022-08-01T03:20:32;2.00;;;1.80;;
50709;SDS011;37033;49.994;21.992;2022-08-01T03:23:23;1.60;;;1.30;;
50709;SDS011;37033;49.994;21.992;2022-08-01T03:26:16;2.00;;;1.30;;
50709;SDS011;37033;49.994;21.992;2022-08-01T03:29:08;2.50;;;1.10;;
50709;SDS011;37033;49.994;21.992;2022-08-01T03:32:02;3.20;;;0.90;;
50709;SDS011;37033;49.994;21.992;2022-08-01T03:34:54;1.00;;;0.90;;
50709;SDS011;37033;49.994;21.992;2022-08-01T03:37:45;1.10;;;1.00;;
50709;SDS011;37033;49.994;21.992;2022-08-01T03:40:39;3.00;;;1.30;;
50709;SDS011;37033;49.994;21.992;2022-08-01T03:43:32;1.40;;;1.10;;
50709;SDS011;37033;49.994;21.992;2022-08-01T03:46:28;2.90;;;0.90;;
50709;SDS011;37033;49.994;21.992;2022-08-01T03:49:23;1.30;;;0.80;;
50709;SDS011;37033;49.994;21.992;2022-08-01T03:52:20;0.90;;;0.70;;
50709;SDS011;37033;49.994;21.992;2022-08-01T03:55:11;0.70;;;0.70;;
50709;SDS011;37033;49.994;21.992;2022-08-01T03:58:03;1.60;;;0.60;;
50709;SDS011;37033;49.994;21.992;2022-08-01T04:00:56;1.00;;;0.60;;
50709;SDS011;37033;49.994;21.992;2022-08-01T04:03:47;1.10;;;0.50;;
50709;SDS011;37033;49.994;21.992;2022-08-01T04:06:40;0.90;;;0.40;;
50709;SDS011;37033;49.994;21.992;2022-08-01T04:09:32;0.40;;;0.40;;
50709;SDS011;37033;49.994;21.992;2022-08-01T04:12:22;0.40;;;0.40;;
50709;SDS011;37033;49.994;21.992;2022-08-01T04:15:13;0.20;;;0.20;;
50709;SDS011;37033;49.994;21.992;2022-08-01T04:18:03;0.30;;;0.30;;
50709;SDS011;37033;49.994;21.992;2022-08-01T04:20:55;0.20;;;0.20;;
50709;SDS011;37033;49.994;21.992;2022-08-01T04:23:46;0.60;;;0.40;;
50709;SDS011;37033;49.994;21.992;2022-08-01T04:26:37;2.00;;;0.30;;
50709;SDS011;37033;49.994;21.992;2022-08-01T04:29:30;1.50;;;0.40;;
50709;SDS011;37033;49.994;21.992;2022-08-01T04:32:22;0.40;;;0.40;;
50709;SDS011;37033;49.994;21.992;2022-08-01T04:35:13;1.10;;;0.30;;
50709;SDS011;37033;49.994;21.992;2022-08-01T04:38:07;0.40;;;0.40;;
50709;SDS011;37033;49.994;21.992;2022-08-01T04:41:01;0.50;;;0.50;;
50709;SDS011;37033;49.994;21.992;2022-08-01T04:43:54;0.50;;;0.50;;
50709;SDS011;37033;49.994;21.992;2022-08-01T04:46:45;1.50;;;0.50;;
50709;SDS011;37033;49.994;21.992;2022-08-01T04:49:36;1.50;;;0.50;;
50709;SDS011;37033;49.994;21.992;2022-08-01T04:52:33;1.20;;;1.10;;
50709;SDS011;37033;49.994;21.992;2022-08-01T04:55:24;1.60;;;1.50;;
50709;SDS011;37033;49.994;21.992;2022-08-01T04:58:14;2.90;;;2.30;;
50709;SDS011;37033;49.994;21.992;2022-08-01T05:01:05;4.20;;;2.00;;
50709;SDS011;37033;49.994;21.992;2022-08-01T05:03:55;3.20;;;2.80;;
50709;SDS011;37033;49.994;21.992;2022-08-01T05:06:46;9.60;;;3.60;;
50709;SDS011;37033;49.994;21.992;2022-08-01T05:09:36;8.20;;;4.00;;
50709;SDS011;37033;49.994;21.992;2022-08-01T05:12:27;6.90;;;4.60;;
50709;SDS011;37033;49.994;21.992;2022-08-01T05:15:19;9.40;;;5.20;;
50709;SDS011;37033;49.994;21.992;2022-08-01T05:18:09;9.40;;;6.80;;
50709;SDS011;37033;49.994;21.992;2022-08-01T05:21:00;10.10;;;6.50;;
50709;SDS011;37033;49.994;21.992;2022-08-01T05:23:50;8.90;;;7.10;;
50709;SDS011;37033;49.994;21.992;2022-08-01T05:26:41;13.20;;;8.40;;
50709;SDS011;37033;49.994;21.992;2022-08-01T05:29:31;14.20;;;8.00;;
50709;SDS011;37033;49.994;21.992;2022-08-01T05:32:22;14.30;;;8.40;;
50709;SDS011;37033;49.994;21.992;2022-08-01T05:35:13;14.50;;;9.40;;
50709;SDS011;37033;49.994;21.992;2022-08-01T05:38:03;13.00;;;9.20;;
50709;SDS011;37033;49.994;21.992;2022-08-01T05:40:54;14.70;;;9.60;;
50709;SDS011;37033;49.994;21.992;2022-08-01T05:43:44;12.00;;;9.50;;
50709;SDS011;37033;49.994;21.992;2022-08-01T05:46:34;17.60;;;11.30;;
50709;SDS011;37033;49.994;21.992;2022-08-01T05:49:25;13.20;;;10.40;;
50709;SDS011;37033;49.994;21.992;2022-08-01T05:52:15;14.10;;;10.60;;
50709;SDS011;37033;49.994;21.992;2022-08-01T05:55:06;16.80;;;8.30;;
50709;SDS011;37033;49.994;21.992;2022-08-01T05:57:57;11.80;;;8.70;;
50709;SDS011;37033;49.994;21.992;2022-08-01T06:00:48;11.10;;;8.90;;
50709;SDS011;37033;49.994;21.992;2022-08-01T06:03:38;8.00;;;5.90;;
50709;SDS011;37033;49.994;21.992;2022-08-01T06:06:28;6.30;;;5.70;;
50709;SDS011;37033;49.994;21.992;2022-08-01T06:09:19;6.40;;;5.80;;
50709;SDS011;37033;49.994;21.992;2022-08-01T06:12:09;6.50;;;5.40;;
50709;SDS011;37033;49.994;21.992;2022-08-01T06:14:59;8.20;;;6.80;;
50709;SDS011;37033;49.994;21.992;2022-08-01T06:17:50;8.80;;;7.40;;
50709;SDS011;37033;49.994;21.992;2022-08-01T06:20:40;12.20;;;7.90;;
50709;SDS011;37033;49.994;21.992;2022-08-01T06:23:31;8.60;;;7.70;;
50709;SDS011;37033;49.994;21.992;2022-08-01T06:26:21;7.40;;;6.60;;
50709;SDS011;37033;49.994;21.992;2022-08-01T06:29:11;7.70;;;6.60;;
50709;SDS011;37033;49.994;21.992;2022-08-01T06:32:01;7.70;;;6.90;;
50709;SDS011;37033;49.994;21.992;2022-08-01T06:34:53;7.20;;;6.50;;
50709;SDS011;37033;49.994;21.992;2022-08-01T06:37:44;9.40;;;7.60;;
50709;SDS011;37033;49.994;21.992;2022-08-01T06:40:35;6.90;;;6.20;;
50709;SDS011;37033;49.994;21.992;2022-08-01T06:43:26;7.30;;;6.50;;
50709;SDS011;37033;49.994;21.992;2022-08-01T06:46:16;8.80;;;7.50;;
50709;SDS011;37033;49.994;21.992;2022-08-01T06:49:06;9.90;;;8.80;;
50709;SDS011;37033;49.994;21.992;2022-08-01T06:51:57;13.00;;;9.70;;
50709;SDS011;37033;49.994;21.992;2022-08-01T06:54:47;15.60;;;11.90;;
50709;SDS011;37033;49.994;21.992;2022-08-01T06:57:39;19.00;;;12.70;;
50709;SDS011;37033;49.994;21.992;2022-08-01T07:00:35;20.40;;;14.10;;
50709;SDS011;37033;49.994;21.992;2022-08-01T07:03:25;20.60;;;14.30;;
50709;SDS011;37033;49.994;21.992;2022-08-01T07:06:16;18.20;;;13.10;;
50709;SDS011;37033;49.994;21.992;2022-08-01T07:09:06;16.60;;;12.90;;
50709;SDS011;37033;49.994;21.992;2022-08-01T07:11:56;23.70;;;14.70;;
50709;SDS011;37033;49.994;21.992;2022-08-01T07:14:46;17.70;;;13.90;;
50709;SDS011;37033;49.994;21.992;2022-08-01T07:17:38;20.20;;;13.20;;
50709;SDS011;37033;49.994;21.992;2022-08-01T07:20:29;17.40;;;13.30;;
50709;SDS011;37033;49.994;21.992;2022-08-01T07:23:20;19.10;;;13.40;;
50709;SDS011;37033;49.994;21.992;2022-08-01T07:26:11;20.80;;;12.70;;
50709;SDS011;37033;49.994;21.992;2022-08-01T07:29:01;22.70;;;13.70;;
50709;SDS011;37033;49.994;21.992;2022-08-01T07:31:52;15.10;;;12.80;;
50709;SDS011;37033;49.994;21.992;2022-08-01T07:34:43;19.00;;;13.70;;
50709;SDS011;37033;49.994;21.992;2022-08-01T07:37:33;19.80;;;12.40;;
50709;SDS011;37033;49.994;21.992;2022-08-01T07:40:24;16.50;;;13.20;;
50709;SDS011;37033;49.994;21.992;2022-08-01T07:43:13;16.40;;;12.70;;
50709;SDS011;37033;49.994;21.992;2022-08-01T07:46:04;18.90;;;12.50;;
50709;SDS011;37033;49.994;21.992;2022-08-01T07:48:54;15.50;;;12.80;;
50709;SDS011;37033;49.994;21.992;2022-08-01T07:51:45;17.10;;;13.00;;
50709;SDS011;37033;49.994;21.992;2022-08-01T07:54:36;15.10;;;12.20;;
50709;SDS011;37033;49.994;21.992;2022-08-01T07:57:26;14.60;;;12.00;;
50709;SDS011;37033;49.994;21.992;2022-08-01T08:00:17;13.40;;;12.10;;
50709;SDS011;37033;49.994;21.992;2022-08-01T08:03:08;14.80;;;11.90;;
50709;SDS011;37033;49.994;21.992;2022-08-01T08:05:58;14.90;;;11.90;;
50709;SDS011;37033;49.994;21.992;2022-08-01T08:08:48;16.20;;;12.00;;
50709;SDS011;37033;49.994;21.992;2022-08-01T08:11:40;16.30;;;12.80;;
50709;SDS011;37033;49.994;21.992;2022-08-01T08:14:31;12.90;;;11.50;;
50709;SDS011;37033;49.994;21.992;2022-08-01T08:17:21;14.70;;;12.00;;
50709;SDS011;37033;49.994;21.992;2022-08-01T08:20:12;17.00;;;12.00;;
50709;SDS011;37033;49.994;21.992;2022-08-01T08:23:02;13.70;;;11.80;;
50709;SDS011;37033;49.994;21.992;2022-08-01T08:26:13;12.60;;;11.40;;
50709;SDS011;37033;49.994;21.992;2022-08-01T08:29:03;22.40;;;11.50;;
50709;SDS011;37033;49.994;21.992;2022-08-01T08:31:54;10.40;;;9.40;;
50709;SDS011;37033;49.994;21.992;2022-08-01T08:34:45;12.00;;;10.90;;
50709;SDS011;37033;49.994;21.992;2022-08-01T08:37:35;12.00;;;10.30;;
50709;SDS011;37033;49.994;21.992;2022-08-01T08:40:29;8.90;;;7.50;;
50709;SDS011;37033;49.994;21.992;2022-08-01T08:43:20;7.80;;;7.00;;
50709;SDS011;37033;49.994;21.992;2022-08-01T08:46:11;7.90;;;7.10;;
50709;SDS011;37033;49.994;21.992;2022-08-01T08:49:02;8.90;;;7.50;;
50709;SDS011;37033;49.994;21.992;2022-08-01T08:51:53;7.70;;;6.70;;
50709;SDS011;37033;49.994;21.992;2022-08-01T08:54:48;7.90;;;7.20;;
50709;SDS011;37033;49.994;21.992;2022-08-01T08:57:40;8.90;;;8.10;;
50709;SDS011;37033;49.994;21.992;2022-08-01T09:00:33;15.90;;;8.00;;
50709;SDS011;37033;49.994;21.992;2022-08-01T09:03:23;8.70;;;7.90;;
50709;SDS011;37033;49.994;21.992;2022-08-01T09:06:14;9.10;;;7.40;;
50709;SDS011;37033;49.994;21.992;2022-08-01T09:09:07;7.40;;;6.70;;
50709;SDS011;37033;49.994;21.992;2022-08-01T09:11:58;8.90;;;6.60;;
50709;SDS011;37033;49.994;21.992;2022-08-01T09:14:48;6.70;;;5.90;;
50709;SDS011;37033;49.994;21.992;2022-08-01T09:17:40;6.60;;;5.20;;
50709;SDS011;37033;49.994;21.992;2022-08-01T09:20:31;11.40;;;7.30;;
50709;SDS011;37033;49.994;21.992;2022-08-01T09:23:32;6.30;;;5.70;;
50709;SDS011;37033;49.994;21.992;2022-08-01T09:26:30;6.10;;;5.30;;
50709;SDS011;37033;49.994;21.992;2022-08-01T09:29:22;5.00;;;4.60;;
50709;SDS011;37033;49.994;21.992;2022-08-01T09:32:14;4.30;;;3.90;;
50709;SDS011;37033;49.994;21.992;2022-08-01T09:38:16;4.90;;;4.50;;
50709;SDS011;37033;49.994;21.992;2022-08-01T09:41:07;6.90;;;6.20;;
50709;SDS011;37033;49.994;21.992;2022-08-01T09:43:58;6.50;;;6.00;;
50709;SDS011;37033;49.994;21.992;2022-08-01T09:46:51;6.50;;;5.90;;
50709;SDS011;37033;49.994;21.992;2022-08-01T09:49:43;6.90;;;5.30;;
50709;SDS011;37033;49.994;21.992;2022-08-01T09:52:34;5.20;;;4.60;;
50709;SDS011;37033;49.994;21.992;2022-08-01T09:55:25;3.90;;;3.60;;
50709;SDS011;37033;49.994;21.992;2022-08-01T09:58:16;4.40;;;3.90;;
50709;SDS011;37033;49.994;21.992;2022-08-01T10:01:07;8.10;;;3.60;;
50709;SDS011;37033;49.994;21.992;2022-08-01T10:04:07;4.00;;;3.20;;
50709;SDS011;37033;49.994;21.992;2022-08-01T10:07:05;6.90;;;4.40;;
50709;SDS011;37033;49.994;21.992;2022-08-01T10:09:55;4.60;;;3.70;;
50709;SDS011;37033;49.994;21.992;2022-08-01T10:12:59;2.90;;;2.70;;
50709;SDS011;37033;49.994;21.992;2022-08-01T10:15:50;2.90;;;2.50;;
50709;SDS011;37033;49.994;21.992;2022-08-01T10:18:41;3.50;;;2.60;;
50709;SDS011;37033;49.994;21.992;2022-08-01T10:21:33;4.70;;;2.10;;
50709;SDS011;37033;49.994;21.992;2022-08-01T10:24:24;3.80;;;2.30;;
50709;SDS011;37033;49.994;21.992;2022-08-01T10:27:18;3.10;;;2.80;;
50709;SDS011;37033;49.994;21.992;2022-08-01T10:30:10;7.80;;;4.30;;
50709;SDS011;37033;49.994;21.992;2022-08-01T10:33:01;3.30;;;3.10;;
50709;SDS011;37033;49.994;21.992;2022-08-01T10:35:52;5.40;;;3.10;;
50709;SDS011;37033;49.994;21.992;2022-08-01T10:38:42;3.10;;;2.50;;
50709;SDS011;37033;49.994;21.992;2022-08-01T10:41:33;3.30;;;2.60;;
50709;SDS011;37033;49.994;21.992;2022-08-01T10:44:25;3.20;;;2.80;;
50709;SDS011;37033;49.994;21.992;2022-08-01T10:47:17;3.40;;;2.50;;
50709;SDS011;37033;49.994;21.992;2022-08-01T10:50:13;3.40;;;2.60;;
50709;SDS011;37033;49.994;21.992;2022-08-01T10:53:14;2.40;;;2.20;;
50709;SDS011;37033;49.994;21.992;2022-08-01T10:56:06;2.90;;;2.70;;
50709;SDS011;37033;49.994;21.992;2022-08-01T10:59:02;8.10;;;3.00;;
50709;SDS011;37033;49.994;21.992;2022-08-01T11:01:59;7.80;;;2.80;;
50709;SDS011;37033;49.994;21.992;2022-08-01T11:04:51;3.60;;;3.20;;
50709;SDS011;37033;49.994;21.992;2022-08-01T11:10:37;3.70;;;3.10;;
50709;SDS011;37033;49.994;21.992;2022-08-01T11:20:16;4.80;;;4.30;;
50709;SDS011;37033;49.994;21.992;2022-08-01T11:26:15;4.90;;;3.80;;
50709;SDS011;37033;49.994;21.992;2022-08-01T11:29:16;3.80;;;3.50;;
50709;SDS011;37033;49.994;21.992;2022-08-01T11:35:14;3.40;;;3.10;;
50709;SDS011;37033;49.994;21.992;2022-08-01T11:41:15;3.00;;;2.70;;
50709;SDS011;37033;49.994;21.992;2022-08-01T11:44:14;2.60;;;2.10;;
50709;SDS011;37033;49.994;21.992;2022-08-01T11:47:07;2.00;;;1.80;;
50709;SDS011;37033;49.994;21.992;2022-08-01T11:49:59;4.10;;;2.20;;
50709;SDS011;37033;49.994;21.992;2022-08-01T11:52:49;6.10;;;2.10;;
50709;SDS011;37033;49.994;21.992;2022-08-01T11:55:48;2.10;;;1.90;;
50709;SDS011;37033;49.994;21.992;2022-08-01T11:58:39;2.90;;;2.20;;
50709;SDS011;37033;49.994;21.992;2022-08-01T12:01:30;2.30;;;2.10;;
50709;SDS011;37033;49.994;21.992;2022-08-01T12:04:20;2.70;;;2.20;;
50709;SDS011;37033;49.994;21.992;2022-08-01T12:07:12;4.80;;;2.00;;
50709;SDS011;37033;49.994;21.992;2022-08-01T12:10:04;5.20;;;3.00;;
50709;SDS011;37033;49.994;21.992;2022-08-01T12:12:58;3.20;;;2.50;;
50709;SDS011;37033;49.994;21.992;2022-08-01T12:15:50;5.30;;;2.60;;
50709;SDS011;37033;49.994;21.992;2022-08-01T12:18:43;5.00;;;2.80;;
50709;SDS011;37033;49.994;21.992;2022-08-01T12:21:34;2.80;;;2.50;;
50709;SDS011;37033;49.994;21.992;2022-08-01T12:24:24;2.90;;;2.70;;
50709;SDS011;37033;49.994;21.992;2022-08-01T12:27:23;5.10;;;3.10;;
50709;SDS011;37033;49.994;21.992;2022-08-01T12:30:15;5.80;;;2.70;;
50709;SDS011;37033;49.994;21.992;2022-08-01T12:33:09;2.80;;;2.50;;
50709;SDS011;37033;49.994;21.992;2022-08-01T12:36:06;13.50;;;3.70;;
50709;SDS011;37033;49.994;21.992;2022-08-01T12:38:56;4.10;;;2.80;;
50709;SDS011;37033;49.994;21.992;2022-08-01T12:41:49;3.70;;;2.70;;
50709;SDS011;37033;49.994;21.992;2022-08-01T12:44:40;2.70;;;2.30;;
50709;SDS011;37033;49.994;21.992;2022-08-01T12:47:33;4.00;;;2.80;;
50709;SDS011;37033;49.994;21.992;2022-08-01T12:50:25;3.80;;;2.50;;
50709;SDS011;37033;49.994;21.992;2022-08-01T12:53:17;2.70;;;2.40;;
50709;SDS011;37033;49.994;21.992;2022-08-01T12:56:08;3.00;;;2.60;;
50709;SDS011;37033;49.994;21.992;2022-08-01T12:58:59;3.30;;;2.60;;
50709;SDS011;37033;49.994;21.992;2022-08-01T13:01:49;3.00;;;2.60;;
50709;SDS011;37033;49.994;21.992;2022-08-01T13:04:50;3.90;;;2.10;;
50709;SDS011;37033;49.994;21.992;2022-08-01T13:07:45;2.90;;;2.10;;
50709;SDS011;37033;49.994;21.992;2022-08-01T13:10:36;6.90;;;2.40;;
50709;SDS011;37033;49.994;21.992;2022-08-01T13:13:36;2.80;;;2.30;;
50709;SDS011;37033;49.994;21.992;2022-08-01T13:16:28;2.70;;;2.50;;
50709;SDS011;37033;49.994;21.992;2022-08-01T13:19:18;3.00;;;2.30;;
50709;SDS011;37033;49.994;21.992;2022-08-01T13:22:08;2.70;;;2.10;;
50709;SDS011;37033;49.994;21.992;2022-08-01T13:25:10;2.50;;;2.00;;
50709;SDS011;37033;49.994;21.992;2022-08-01T13:28:17;2.60;;;2.30;;
50709;SDS011;37033;49.994;21.992;2022-08-01T13:31:10;4.60;;;2.40;;
50709;SDS011;37033;49.994;21.992;2022-08-01T13:34:01;2.30;;;2.10;;
50709;SDS011;37033;49.994;21.992;2022-08-01T13:36:51;5.00;;;2.60;;
50709;SDS011;37033;49.994;21.992;2022-08-01T13:39:44;7.10;;;2.60;;
50709;SDS011;37033;49.994;21.992;2022-08-01T13:42:35;2.80;;;2.60;;
50709;SDS011;37033;49.994;21.992;2022-08-01T13:45:25;2.70;;;2.10;;
50709;SDS011;37033;49.994;21.992;2022-08-01T13:48:16;2.20;;;1.90;;
50709;SDS011;37033;49.994;21.992;2022-08-01T13:51:06;2.50;;;2.30;;
50709;SDS011;37033;49.994;21.992;2022-08-01T13:53:57;2.60;;;2.10;;
50709;SDS011;37033;49.994;21.992;2022-08-01T13:56:48;5.30;;;2.70;;
50709;SDS011;37033;49.994;21.992;2022-08-01T13:59:38;4.10;;;2.30;;
50709;SDS011;37033;49.994;21.992;2022-08-01T14:02:28;6.00;;;2.30;;
50709;SDS011;37033;49.994;21.992;2022-08-01T14:05:18;5.20;;;2.20;;
50709;SDS011;37033;49.994;21.992;2022-08-01T14:08:09;7.10;;;2.40;;
50709;SDS011;37033;49.994;21.992;2022-08-01T14:10:59;2.70;;;2.30;;
50709;SDS011;37033;49.994;21.992;2022-08-01T14:13:50;2.50;;;2.00;;
50709;SDS011;37033;49.994;21.992;2022-08-01T14:16:40;2.80;;;2.30;;
50709;SDS011;37033;49.994;21.992;2022-08-01T14:19:32;5.00;;;2.30;;
50709;SDS011;37033;49.994;21.992;2022-08-01T14:22:22;3.90;;;2.40;;
50709;SDS011;37033;49.994;21.992;2022-08-01T14:25:13;2.90;;;2.30;;
50709;SDS011;37033;49.994;21.992;2022-08-01T14:28:04;2.90;;;2.60;;
50709;SDS011;37033;49.994;21.992;2022-08-01T14:30:55;2.70;;;2.20;;
50709;SDS011;37033;49.994;21.992;2022-08-01T14:33:46;4.60;;;2.00;;
50709;SDS011;37033;49.994;21.992;2022-08-01T14:36:36;5.40;;;2.30;;
50709;SDS011;37033;49.994;21.992;2022-08-01T14:39:26;2.80;;;2.50;;
50709;SDS011;37033;49.994;21.992;2022-08-01T14:42:16;4.50;;;2.60;;
50709;SDS011;37033;49.994;21.992;2022-08-01T14:45:08;6.50;;;2.70;;
50709;SDS011;37033;49.994;21.992;2022-08-01T14:47:59;5.10;;;3.00;;
50709;SDS011;37033;49.994;21.992;2022-08-01T14:50:49;2.50;;;2.30;;
50709;SDS011;37033;49.994;21.992;2022-08-01T14:53:41;7.20;;;6.50;;
50709;SDS011;37033;49.994;21.992;2022-08-01T14:56:31;2.70;;;2.40;;
50709;SDS011;37033;49.994;21.992;2022-08-01T14:59:21;4.20;;;2.30;;
50709;SDS011;37033;49.994;21.992;2022-08-01T15:02:12;4.40;;;2.50;;
50709;SDS011;37033;49.994;21.992;2022-08-01T15:05:04;2.40;;;2.20;;
50709;SDS011;37033;49.994;21.992;2022-08-01T15:07:55;6.90;;;2.40;;
50709;SDS011;37033;49.994;21.992;2022-08-01T15:10:45;6.50;;;2.20;;
50709;SDS011;37033;49.994;21.992;2022-08-01T15:13:35;5.30;;;2.70;;
50709;SDS011;37033;49.994;21.992;2022-08-01T15:16:25;4.10;;;2.50;;
50709;SDS011;37033;49.994;21.992;2022-08-01T15:19:16;4.00;;;2.50;;
50709;SDS011;37033;49.994;21.992;2022-08-01T15:22:06;3.60;;;2.30;;
50709;SDS011;37033;49.994;21.992;2022-08-01T15:24:57;5.30;;;2.40;;
50709;SDS011;37033;49.994;21.992;2022-08-01T15:27:48;2.80;;;2.10;;
50709;SDS011;37033;49.994;21.992;2022-08-01T15:30:38;2.20;;;1.90;;
50709;SDS011;37033;49.994;21.992;2022-08-01T15:33:29;2.60;;;1.90;;
50709;SDS011;37033;49.994;21.992;2022-08-01T15:36:20;5.60;;;1.90;;
50709;SDS011;37033;49.994;21.992;2022-08-01T15:39:10;2.40;;;1.70;;
50709;SDS011;37033;49.994;21.992;2022-08-01T15:42:02;3.20;;;2.60;;
50709;SDS011;37033;49.994;21.992;2022-08-01T15:44:57;3.10;;;2.00;;
50709;SDS011;37033;49.994;21.992;2022-08-01T15:47:48;1.80;;;1.60;;
50709;SDS011;37033;49.994;21.992;2022-08-01T15:50:38;2.60;;;1.50;;
50709;SDS011;37033;49.994;21.992;2022-08-01T15:53:28;4.30;;;1.90;;
50709;SDS011;37033;49.994;21.992;2022-08-01T15:56:19;4.40;;;2.00;;
50709;SDS011;37033;49.994;21.992;2022-08-01T15:59:09;3.90;;;1.70;;
50709;SDS011;37033;49.994;21.992;2022-08-01T16:02:00;4.10;;;2.20;;
50709;SDS011;37033;49.994;21.992;2022-08-01T16:04:51;5.30;;;2.50;;
50709;SDS011;37033;49.994;21.992;2022-08-01T16:07:41;7.10;;;2.00;;
50709;SDS011;37033;49.994;21.992;2022-08-01T16:10:31;5.30;;;1.60;;
50709;SDS011;37033;49.994;21.992;2022-08-01T16:13:22;2.10;;;1.80;;
50709;SDS011;37033;49.994;21.992;2022-08-01T16:16:12;4.20;;;1.90;;
50709;SDS011;37033;49.994;21.992;2022-08-01T16:19:03;2.30;;;1.70;;
50709;SDS011;37033;49.994;21.992;2022-08-01T16:21:53;2.10;;;1.70;;
50709;SDS011;37033;49.994;21.992;2022-08-01T16:24:43;4.70;;;1.70;;
50709;SDS011;37033;49.994;21.992;2022-08-01T16:27:33;1.90;;;1.80;;
50709;SDS011;37033;49.994;21.992;2022-08-01T16:30:23;3.00;;;1.80;;
50709;SDS011;37033;49.994;21.992;2022-08-01T16:33:13;2.50;;;1.70;;
50709;SDS011;37033;49.994;21.992;2022-08-01T16:36:04;4.40;;;2.10;;
50709;SDS011;37033;49.994;21.992;2022-08-01T16:38:54;2.00;;;1.90;;
50709;SDS011;37033;49.994;21.992;2022-08-01T16:41:45;2.80;;;1.80;;
50709;SDS011;37033;49.994;21.992;2022-08-01T16:44:36;2.70;;;2.00;;
50709;SDS011;37033;49.994;21.992;2022-08-01T16:47:27;2.50;;;2.20;;
50709;SDS011;37033;49.994;21.992;2022-08-01T16:50:17;3.10;;;1.90;;
50709;SDS011;37033;49.994;21.992;2022-08-01T16:53:08;4.20;;;1.80;;
50709;SDS011;37033;49.994;21.992;2022-08-01T16:55:58;2.50;;;1.80;;
50709;SDS011;37033;49.994;21.992;2022-08-01T16:58:49;2.30;;;1.80;;
50709;SDS011;37033;49.994;21.992;2022-08-01T17:01:40;3.10;;;2.00;;
50709;SDS011;37033;49.994;21.992;2022-08-01T17:04:30;2.80;;;1.70;;
50709;SDS011;37033;49.994;21.992;2022-08-01T17:07:20;4.10;;;1.60;;
50709;SDS011;37033;49.994;21.992;2022-08-01T17:10:11;4.30;;;2.10;;
50709;SDS011;37033;49.994;21.992;2022-08-01T17:13:02;4.60;;;2.20;;
50709;SDS011;37033;49.994;21.992;2022-08-01T17:15:54;3.70;;;1.90;;
50709;SDS011;37033;49.994;21.992;2022-08-01T17:18:44;5.40;;;2.10;;
50709;SDS011;37033;49.994;21.992;2022-08-01T17:21:35;3.90;;;2.20;;